createdAt,value
2018-09-05T00:00:46.105Z,16.60
2018-09-05T00:03:14.549Z,17.10
2018-09-05T00:05:42.984Z,17.20
2018-09-05T00:08:11.426Z,17.30
2018-09-05T00:10:40.035Z,17.40
2018-09-05T00:13:08.678Z,17.00
2018-09-05T00:15:37.197Z,16.40
2018-09-05T00:18:05.641Z,16.10
2018-09-05T00:20:34.249Z,15.90
2018-09-05T00:23:02.708Z,16.10
2018-09-05T00:25:31.214Z,16.00
2018-09-05T00:27:59.590Z,15.80
2018-09-05T00:30:27.986Z,15.70
2018-09-05T00:32:56.389Z,15.60
2018-09-05T00:35:24.838Z,16.20
2018-09-05T00:37:53.266Z,16.60
2018-09-05T00:40:21.800Z,16.80
2018-09-05T00:42:50.337Z,16.60
2018-09-05T00:45:18.781Z,16.10
2018-09-05T00:47:47.308Z,15.80
2018-09-05T00:50:15.688Z,15.60
2018-09-05T00:52:44.104Z,15.90
2018-09-05T00:55:12.496Z,15.80
2018-09-05T00:57:40.926Z,15.70
2018-09-05T01:00:09.468Z,15.40
2018-09-05T01:02:37.987Z,15.80
2018-09-05T01:05:06.508Z,15.60
2018-09-05T01:07:35.043Z,15.30
2018-09-05T01:10:03.445Z,15.10
2018-09-05T01:12:31.848Z,15.10
2018-09-05T01:15:00.432Z,15.30
2018-09-05T01:17:28.977Z,15.60
2018-09-05T01:19:57.537Z,15.20
2018-09-05T01:22:25.889Z,15.40
2018-09-05T01:24:54.354Z,15.70
2018-09-05T01:27:22.839Z,16.00
2018-09-05T01:29:51.245Z,16.30
2018-09-05T01:32:19.798Z,15.90
2018-09-05T01:34:48.259Z,15.30
2018-09-05T01:37:16.705Z,15.10
2018-09-05T01:39:45.179Z,15.40
2018-09-05T01:42:13.627Z,15.60
2018-09-05T01:44:42.173Z,15.20
2018-09-05T01:47:10.575Z,15.00
2018-09-05T01:49:39.030Z,15.40
2018-09-05T01:52:07.462Z,15.20
2018-09-05T01:54:36.007Z,15.20
2018-09-05T01:57:04.482Z,15.50
2018-09-05T01:59:32.835Z,15.90
2018-09-05T02:02:01.328Z,15.30
2018-09-05T02:04:29.815Z,14.80
2018-09-05T02:06:58.334Z,14.60
2018-09-05T02:09:26.706Z,14.60
2018-09-05T02:11:55.097Z,14.60
2018-09-05T02:14:23.655Z,14.70
2018-09-05T02:16:52.154Z,15.00
2018-09-05T02:19:20.745Z,15.50
2018-09-05T02:21:49.208Z,15.70
2018-09-05T02:24:17.682Z,16.00
2018-09-05T02:26:46.109Z,16.00
2018-09-05T02:29:14.588Z,16.00
2018-09-05T02:31:42.991Z,16.10
2018-09-05T02:34:11.390Z,16.10
2018-09-05T02:36:39.781Z,16.10
2018-09-05T02:39:09.745Z,15.90
2018-09-05T02:41:38.205Z,15.40
2018-09-05T02:44:12.211Z,15.60
2018-09-05T02:46:40.598Z,15.90
2018-09-05T02:49:09.492Z,16.10
2018-09-05T02:51:38.016Z,15.90
2018-09-05T02:54:06.465Z,15.20
2018-09-05T02:56:35.007Z,14.70
2018-09-05T02:59:03.571Z,14.50
2018-09-05T03:01:32.182Z,14.40
2018-09-05T03:04:00.633Z,14.30
2018-09-05T03:06:29.160Z,14.30
2018-09-05T03:08:57.639Z,14.40
2018-09-05T03:11:26.153Z,14.20
2018-09-05T03:13:54.600Z,14.20
2018-09-05T03:16:23.032Z,14.10
2018-09-05T03:18:51.467Z,14.00
2018-09-05T03:21:19.954Z,14.10
2018-09-05T03:23:48.417Z,14.10
2018-09-05T03:26:16.855Z,14.10
2018-09-05T03:28:45.397Z,14.10
2018-09-05T03:31:13.853Z,14.60
2018-09-05T03:33:42.355Z,14.80
2018-09-05T03:36:10.785Z,14.60
2018-09-05T03:38:39.296Z,14.70
2018-09-05T03:41:07.800Z,14.70
2018-09-05T03:43:36.285Z,14.20
2018-09-05T03:46:04.839Z,14.10
2018-09-05T03:48:33.295Z,13.90
2018-09-05T03:51:01.713Z,14.20
2018-09-05T03:53:30.200Z,14.40
2018-09-05T03:56:05.133Z,14.00
2018-09-05T03:58:33.725Z,13.80
2018-09-05T04:01:02.184Z,13.80
2018-09-05T04:03:30.673Z,13.80
2018-09-05T04:05:59.045Z,13.70
2018-09-05T04:08:27.509Z,13.90
2018-09-05T04:10:56.023Z,14.60
2018-09-05T04:13:24.482Z,15.00
2018-09-05T04:15:52.968Z,14.90
2018-09-05T04:18:21.448Z,14.30
2018-09-05T04:20:49.863Z,14.00
2018-09-05T04:23:18.334Z,13.90
2018-09-05T04:25:46.761Z,14.10
2018-09-05T04:28:15.219Z,14.10
2018-09-05T04:30:43.689Z,14.10
2018-09-05T04:33:12.116Z,14.10
2018-09-05T04:35:40.523Z,13.80
2018-09-05T04:38:08.931Z,13.80
2018-09-05T04:40:37.303Z,13.90
2018-09-05T04:43:05.702Z,13.90
2018-09-05T04:45:34.119Z,14.00
2018-09-05T04:48:02.557Z,14.00
2018-09-05T04:50:31.145Z,14.10
2018-09-05T04:52:59.621Z,14.30
2018-09-05T04:55:28.139Z,14.50
2018-09-05T04:57:56.687Z,14.70
2018-09-05T05:00:25.178Z,14.80
2018-09-05T05:02:53.666Z,15.00
2018-09-05T05:05:22.132Z,15.10
2018-09-05T05:07:50.481Z,15.00
2018-09-05T05:10:19.015Z,14.80
2018-09-05T05:12:47.362Z,15.10
2018-09-05T05:15:15.818Z,15.10
2018-09-05T05:17:44.244Z,15.30
2018-09-05T05:20:12.737Z,15.30
2018-09-05T05:22:41.187Z,15.40
2018-09-05T05:25:09.672Z,15.40
2018-09-05T05:27:38.102Z,15.50
2018-09-05T05:30:06.763Z,15.50
2018-09-05T05:32:35.191Z,14.90
2018-09-05T05:35:03.623Z,15.10
2018-09-05T05:37:32.079Z,14.80
2018-09-05T05:40:04.874Z,14.50
2018-09-05T05:42:33.338Z,14.60
2018-09-05T05:45:01.969Z,14.60
2018-09-05T05:47:31.142Z,15.10
2018-09-05T05:49:59.602Z,15.30
2018-09-05T05:52:28.033Z,15.80
2018-09-05T05:54:56.604Z,16.00
2018-09-05T05:57:25.027Z,15.30
2018-09-05T05:59:53.530Z,15.00
2018-09-05T06:02:22.033Z,15.00
2018-09-05T06:04:50.563Z,15.30
2018-09-05T06:07:19.078Z,16.10
2018-09-05T06:09:47.463Z,16.70
2018-09-05T06:12:15.941Z,16.40
2018-09-05T06:14:44.310Z,16.80
2018-09-05T06:17:12.921Z,16.70
2018-09-05T06:19:41.405Z,16.60
2018-09-05T06:22:09.878Z,17.00
2018-09-05T06:24:38.283Z,16.80
2018-09-05T06:27:06.736Z,17.90
2018-09-05T06:29:35.223Z,17.40
2018-09-05T06:32:03.718Z,17.30
2018-09-05T06:34:32.247Z,17.90
2018-09-05T06:37:00.735Z,17.10
2018-09-05T06:39:29.115Z,17.10
2018-09-05T06:41:57.446Z,17.40
2018-09-05T06:44:26.023Z,18.10
2018-09-05T06:46:54.499Z,19.10
2018-09-05T06:49:22.918Z,18.90
2018-09-05T06:51:51.308Z,19.50
2018-09-05T06:54:19.719Z,19.70
2018-09-05T06:56:48.127Z,20.60
2018-09-05T06:59:16.587Z,21.60
2018-09-05T07:01:45.135Z,22.20
2018-09-05T07:04:13.560Z,22.40
2018-09-05T07:06:42.108Z,22.50
2018-09-05T07:09:12.159Z,22.70
2018-09-05T07:11:41.056Z,22.00
2018-09-05T07:14:09.594Z,22.70
2018-09-05T07:16:37.979Z,22.60
2018-09-05T07:19:07.730Z,23.10
2018-09-05T07:21:36.653Z,23.30
2018-09-05T07:24:05.055Z,23.40
2018-09-05T07:26:33.518Z,23.60
2018-09-05T07:29:01.886Z,23.70
2018-09-05T07:31:30.319Z,23.60
2018-09-05T07:33:58.791Z,23.50
2018-09-05T07:36:27.383Z,23.80
2018-09-05T07:38:55.746Z,24.20
2018-09-05T07:41:24.143Z,24.50
2018-09-05T07:43:52.592Z,24.80
2018-09-05T07:46:21.020Z,24.90
2018-09-05T07:48:49.454Z,25.10
2018-09-05T07:51:18.167Z,25.00
2018-09-05T07:53:46.543Z,23.60
2018-09-05T07:56:15.105Z,22.70
2018-09-05T07:58:43.599Z,22.10
2018-09-05T08:01:12.179Z,22.10
2018-09-05T08:03:40.676Z,22.80
2018-09-05T08:06:09.185Z,24.30
2018-09-05T08:08:37.663Z,23.70
2018-09-05T08:11:06.248Z,24.10
2018-09-05T08:13:34.655Z,24.40
2018-09-05T08:16:03.176Z,24.10
2018-09-05T08:18:31.586Z,23.50
2018-09-05T08:21:00.032Z,22.90
2018-09-05T08:23:28.549Z,23.60
2018-09-05T08:25:57.310Z,24.20
2018-09-05T08:28:25.812Z,24.10
2018-09-05T08:30:54.268Z,25.90
2018-09-05T08:33:22.839Z,24.70
2018-09-05T08:35:51.629Z,24.20
2018-09-05T08:38:20.143Z,25.30
2018-09-05T08:40:48.702Z,26.40
2018-09-05T08:43:17.144Z,26.00
2018-09-05T08:45:46.067Z,25.30
2018-09-05T08:48:14.487Z,25.40
2018-09-05T08:50:42.941Z,26.50
2018-09-05T08:53:11.479Z,26.10
2018-09-05T08:55:39.885Z,25.20
2018-09-05T08:58:08.456Z,26.40
2018-09-05T09:00:37.017Z,26.40
2018-09-05T09:03:05.538Z,25.50
2018-09-05T09:05:33.918Z,26.00
2018-09-05T09:08:02.382Z,26.20
2018-09-05T09:10:30.807Z,25.90
2018-09-05T09:12:59.251Z,26.50
2018-09-05T09:15:27.617Z,26.00
2018-09-05T09:17:56.044Z,27.20
2018-09-05T09:20:24.379Z,27.40
2018-09-05T09:22:52.854Z,27.70
2018-09-05T09:25:21.334Z,27.50
2018-09-05T09:27:49.800Z,28.20
2018-09-05T09:30:18.306Z,28.60
2018-09-05T09:32:46.783Z,28.10
2018-09-05T09:35:15.256Z,27.80
2018-09-05T09:37:43.690Z,28.00
2018-09-05T09:40:12.149Z,27.50
2018-09-05T09:42:40.850Z,26.90
2018-09-05T09:45:09.295Z,28.40
2018-09-05T09:47:37.662Z,28.00
2018-09-05T09:50:06.201Z,28.30
2018-09-05T09:52:37.730Z,27.80
2018-09-05T09:55:07.479Z,27.80
2018-09-05T09:57:36.324Z,28.30
2018-09-05T10:00:05.276Z,28.00
2018-09-05T10:02:39.006Z,28.50
2018-09-05T10:05:12.829Z,28.50
2018-09-05T10:07:46.687Z,28.50
2018-09-05T10:10:20.703Z,29.30
2018-09-05T10:12:49.854Z,30.10
2018-09-05T10:15:23.720Z,29.40
2018-09-05T10:17:57.758Z,29.40
2018-09-05T10:20:26.313Z,29.90
2018-09-05T10:22:54.688Z,31.30
2018-09-05T10:25:23.130Z,32.20
2018-09-05T10:27:51.536Z,31.10
2018-09-05T10:30:20.031Z,29.50
2018-09-05T10:32:48.500Z,30.40
2018-09-05T10:35:17.111Z,30.50
2018-09-05T10:37:45.593Z,30.30
2018-09-05T10:40:14.172Z,29.30
2018-09-05T10:42:42.665Z,29.70
2018-09-05T10:45:11.163Z,29.20
2018-09-05T10:47:39.677Z,28.90
2018-09-05T10:50:08.200Z,28.80
2018-09-05T10:52:36.715Z,29.00
2018-09-05T10:55:05.164Z,29.90
2018-09-05T10:57:33.591Z,30.10
2018-09-05T11:00:02.028Z,29.00
2018-09-05T11:02:30.396Z,30.60
2018-09-05T11:04:58.836Z,31.10
2018-09-05T11:07:27.198Z,30.80
2018-09-05T11:09:55.649Z,30.10
2018-09-05T11:12:24.077Z,29.20
2018-09-05T11:14:52.624Z,30.20
2018-09-05T11:17:21.147Z,30.10
2018-09-05T11:19:49.643Z,30.00
2018-09-05T11:22:18.247Z,30.10
2018-09-05T11:24:46.651Z,30.40
2018-09-05T11:27:15.336Z,31.10
2018-09-05T11:29:44.738Z,29.70
2018-09-05T11:32:15.286Z,30.00
2018-09-05T11:34:43.723Z,29.80
2018-09-05T11:37:12.107Z,30.10
2018-09-05T11:39:42.071Z,30.30
2018-09-05T11:42:10.501Z,30.20
2018-09-05T11:44:38.970Z,29.50
2018-09-05T11:47:07.371Z,31.00
2018-09-05T11:49:36.048Z,31.70
2018-09-05T11:52:05.650Z,31.20
2018-09-05T11:54:34.080Z,31.50
2018-09-05T11:57:03.661Z,31.20
2018-09-05T11:59:32.134Z,29.90
2018-09-05T12:02:00.547Z,29.10
2018-09-05T12:04:29.042Z,28.80
2018-09-05T12:06:57.507Z,28.80
2018-09-05T12:09:27.029Z,30.20
2018-09-05T12:11:55.459Z,30.40
2018-09-05T12:14:23.916Z,30.20
2018-09-05T12:16:52.683Z,30.20
2018-09-05T12:19:21.156Z,29.90
2018-09-05T12:21:49.699Z,30.20
2018-09-05T12:24:18.191Z,30.10
2018-09-05T12:26:46.821Z,29.60
2018-09-05T12:29:15.390Z,31.00
2018-09-05T12:31:43.994Z,30.60
2018-09-05T12:34:46.898Z,31.00
2018-09-05T12:37:15.168Z,31.40
2018-09-05T12:39:43.470Z,29.90
2018-09-05T12:42:11.728Z,30.10
2018-09-05T12:44:39.968Z,31.70
2018-09-05T12:47:08.154Z,32.70
2018-09-05T12:49:36.424Z,31.10
2018-09-05T12:52:04.622Z,30.90
2018-09-05T12:54:32.903Z,31.70
2018-09-05T12:57:01.311Z,33.40
2018-09-05T12:59:29.600Z,31.60
2018-09-05T13:01:57.933Z,30.60
2018-09-05T13:04:26.212Z,29.80
2018-09-05T13:06:54.482Z,28.80
2018-09-05T13:09:22.772Z,28.20
2018-09-05T13:11:51.016Z,28.20
2018-09-05T13:14:19.325Z,28.20
2018-09-05T13:16:47.602Z,28.90
2018-09-05T13:19:15.883Z,28.20
2018-09-05T13:21:44.143Z,27.90
2018-09-05T13:24:12.483Z,27.70
2018-09-05T13:26:40.834Z,27.90
2018-09-05T13:29:09.303Z,28.00
2018-09-05T13:31:37.516Z,28.30
2018-09-05T13:34:05.742Z,28.80
2018-09-05T13:36:33.935Z,28.40
2018-09-05T13:39:02.212Z,28.40
2018-09-05T13:41:30.480Z,28.00
2018-09-05T13:43:58.746Z,28.50
2018-09-05T13:46:26.920Z,28.90
2018-09-05T13:48:55.144Z,28.50
2018-09-05T13:51:23.392Z,28.70
2018-09-05T13:53:51.614Z,28.60
2018-09-05T13:56:21.971Z,28.90
2018-09-05T13:58:50.991Z,28.80
2018-09-05T14:01:19.292Z,28.40
2018-09-05T14:03:47.530Z,28.50
2018-09-05T14:06:15.801Z,28.70
2018-09-05T14:08:44.067Z,28.40
2018-09-05T14:11:12.756Z,28.10
2018-09-05T14:13:40.967Z,28.10
2018-09-05T14:16:09.187Z,28.10
2018-09-05T14:18:37.526Z,28.30
2018-09-05T14:21:06.796Z,28.30
2018-09-05T14:23:35.448Z,28.30
2018-09-05T14:26:03.723Z,28.30
2018-09-05T14:28:32.962Z,28.50
2018-09-05T14:31:01.198Z,28.60
2018-09-05T14:33:29.455Z,28.90
2018-09-05T14:35:57.686Z,28.30
2018-09-05T14:38:25.957Z,28.20
2018-09-05T14:40:54.541Z,28.20
2018-09-05T14:43:22.779Z,28.70
2018-09-05T14:45:50.961Z,29.20
2018-09-05T14:48:19.212Z,29.20
2018-09-05T14:50:47.427Z,28.20
2018-09-05T14:53:15.643Z,28.40
2018-09-05T14:55:43.873Z,28.30
2018-09-05T14:58:12.152Z,28.50
2018-09-05T15:00:40.384Z,29.10
2018-09-05T15:03:08.700Z,29.00
2018-09-05T15:05:37.003Z,28.70
2018-09-05T15:08:05.252Z,29.20
2018-09-05T15:10:39.318Z,29.60
2018-09-05T15:13:07.530Z,29.60
2018-09-05T15:15:35.793Z,29.60
2018-09-05T15:18:04.109Z,29.30
2018-09-05T15:20:32.414Z,29.40
2018-09-05T15:23:00.709Z,28.90
2018-09-05T15:25:28.916Z,28.80
2018-09-05T15:27:57.306Z,28.80
2018-09-05T15:30:25.637Z,28.40
2018-09-05T15:32:53.842Z,28.00
2018-09-05T15:35:22.275Z,28.10
2018-09-05T15:37:50.506Z,28.00
2018-09-05T15:40:18.752Z,27.70
2018-09-05T15:42:47.107Z,27.70
2018-09-05T15:45:15.393Z,27.80
2018-09-05T15:47:43.615Z,28.00
2018-09-05T15:50:11.962Z,28.00
2018-09-05T15:52:40.140Z,27.90
2018-09-05T15:55:08.346Z,27.80
2018-09-05T15:57:36.623Z,27.50
2018-09-05T16:00:04.855Z,27.20
2018-09-05T16:02:33.067Z,27.20
2018-09-05T16:05:01.354Z,27.10
2018-09-05T16:07:29.938Z,27.30
2018-09-05T16:09:58.118Z,27.20
2018-09-05T16:12:26.378Z,27.00
2018-09-05T16:14:54.559Z,27.30
2018-09-05T16:17:22.838Z,27.50
2018-09-05T16:19:51.074Z,27.20
2018-09-05T16:22:19.291Z,27.10
2018-09-05T16:24:47.573Z,27.00
2018-09-05T16:27:15.835Z,27.30
2018-09-05T16:29:44.277Z,27.20
2018-09-05T16:32:12.577Z,27.10
2018-09-05T16:34:40.836Z,26.90
2018-09-05T16:37:09.133Z,27.00
2018-09-05T16:39:37.399Z,27.10
2018-09-05T16:42:05.697Z,27.00
2018-09-05T16:44:33.872Z,26.90
2018-09-05T16:47:02.131Z,27.10
2018-09-05T16:49:30.294Z,27.00
2018-09-05T16:51:58.550Z,27.00
2018-09-05T16:54:26.755Z,27.00
2018-09-05T16:56:54.949Z,26.90
2018-09-05T16:59:23.166Z,26.90
2018-09-05T17:01:51.412Z,26.90
2018-09-05T17:04:19.584Z,26.70
2018-09-05T17:06:47.929Z,26.70
2018-09-05T17:09:16.128Z,26.70
2018-09-05T17:11:44.371Z,26.50
2018-09-05T17:14:12.629Z,26.50
2018-09-05T17:16:40.862Z,26.50
2018-09-05T17:19:09.081Z,26.40
2018-09-05T17:21:37.354Z,26.50
2018-09-05T17:24:05.527Z,26.60
2018-09-05T17:26:33.843Z,26.60
2018-09-05T17:29:02.054Z,26.60
2018-09-05T17:31:30.234Z,26.50
2018-09-05T17:33:58.450Z,26.40
2018-09-05T17:36:26.651Z,26.30
2018-09-05T17:38:54.906Z,26.20
2018-09-05T17:41:23.104Z,26.00
2018-09-05T17:43:51.369Z,25.90
2018-09-05T17:46:19.648Z,26.00
2018-09-05T17:48:47.928Z,25.60
2018-09-05T17:51:16.172Z,25.10
2018-09-05T17:53:44.449Z,24.70
2018-09-05T17:56:12.646Z,24.30
2018-09-05T17:58:40.926Z,24.30
2018-09-05T18:01:12.656Z,24.20
2018-09-05T18:03:40.855Z,24.00
2018-09-05T18:06:09.116Z,24.00
2018-09-05T18:08:37.342Z,23.80
2018-09-05T18:11:05.587Z,23.80
2018-09-05T18:13:33.806Z,23.50
2018-09-05T18:16:02.081Z,23.40
2018-09-05T18:18:30.331Z,23.40
2018-09-05T18:20:58.551Z,23.50
2018-09-05T18:23:26.801Z,23.50
2018-09-05T18:25:54.986Z,23.50
2018-09-05T18:28:23.219Z,23.70
2018-09-05T18:30:51.478Z,23.70
2018-09-05T18:33:19.810Z,23.60
2018-09-05T18:35:48.039Z,23.40
2018-09-05T18:38:16.361Z,23.10
2018-09-05T18:40:44.494Z,22.80
2018-09-05T18:43:12.814Z,22.70
2018-09-05T18:45:41.099Z,22.60
2018-09-05T18:48:09.490Z,22.40
2018-09-05T18:50:38.061Z,22.30
2018-09-05T18:53:10.327Z,22.20
2018-09-05T18:55:40.029Z,22.30
2018-09-05T18:58:08.686Z,22.10
2018-09-05T19:00:37.572Z,22.10
2018-09-05T19:03:12.601Z,21.90
2018-09-05T19:05:43.530Z,21.70
2018-09-05T19:08:12.037Z,21.70
2018-09-05T19:10:40.696Z,21.50
2018-09-05T19:13:11.201Z,21.10
2018-09-05T19:15:39.683Z,20.90
2018-09-05T19:18:08.911Z,21.00
2018-09-05T19:20:37.340Z,21.00
2018-09-05T19:23:05.888Z,21.30
2018-09-05T19:25:34.346Z,20.80
2018-09-05T19:28:02.921Z,21.10
2018-09-05T19:30:32.339Z,21.50
2018-09-05T19:33:00.769Z,21.70
2018-09-05T19:35:29.302Z,21.20
2018-09-05T19:37:57.716Z,20.90
2018-09-05T19:40:26.147Z,20.60
2018-09-05T19:42:54.475Z,20.60
2018-09-05T19:45:22.919Z,20.70
2018-09-05T19:47:51.506Z,20.80
2018-09-05T19:50:19.896Z,20.80
2018-09-05T19:52:48.320Z,20.80
2018-09-05T19:55:16.791Z,20.60
2018-09-05T19:57:45.164Z,20.50
2018-09-05T20:00:15.131Z,20.60
2018-09-05T20:02:43.574Z,20.50
2018-09-05T20:05:12.096Z,20.60
2018-09-05T20:07:40.544Z,20.50
2018-09-05T20:10:09.040Z,20.70
2018-09-05T20:12:37.451Z,20.60
2018-09-05T20:15:05.931Z,20.50
2018-09-05T20:17:34.393Z,20.60
2018-09-05T20:20:02.804Z,20.50
2018-09-05T20:22:31.203Z,20.50
2018-09-05T20:24:59.723Z,20.60
2018-09-05T20:27:28.283Z,20.50
2018-09-05T20:29:57.192Z,20.10
2018-09-05T20:32:25.801Z,20.00
2018-09-05T20:34:54.234Z,19.90
2018-09-05T20:37:22.643Z,19.90
2018-09-05T20:39:51.091Z,19.90
2018-09-05T20:42:19.572Z,19.90
2018-09-05T20:44:48.045Z,20.20
2018-09-05T20:47:16.544Z,20.60
2018-09-05T20:49:44.984Z,20.70
2018-09-05T20:52:13.537Z,20.50
2018-09-05T20:54:42.019Z,20.40
2018-09-05T20:57:10.484Z,20.60
2018-09-05T20:59:38.956Z,20.30
2018-09-05T21:02:07.361Z,20.50
2018-09-05T21:04:35.803Z,20.40
2018-09-05T21:07:04.236Z,20.70
2018-09-05T21:09:32.760Z,20.80
2018-09-05T21:12:01.351Z,20.20
2018-09-05T21:14:29.812Z,20.30
2018-09-05T21:16:58.298Z,20.60
2018-09-05T21:19:26.999Z,20.80
2018-09-05T21:21:55.507Z,20.90
2018-09-05T21:24:24.057Z,20.80
2018-09-05T21:26:52.435Z,20.60
2018-09-05T21:29:20.880Z,20.70
2018-09-05T21:31:49.420Z,20.90
2018-09-05T21:34:17.823Z,20.90
2018-09-05T21:36:46.265Z,20.00
2018-09-05T21:39:14.720Z,19.60
2018-09-05T21:41:43.214Z,19.30
2018-09-05T21:44:11.727Z,19.20
2018-09-05T21:46:40.232Z,19.30
2018-09-05T21:49:08.674Z,19.20
2018-09-05T21:51:37.085Z,19.10
2018-09-05T21:54:05.603Z,18.90
2018-09-05T21:56:34.067Z,18.70
2018-09-05T21:59:02.542Z,19.20
2018-09-05T22:01:31.046Z,19.40
2018-09-05T22:03:59.478Z,18.90
2018-09-05T22:06:27.958Z,18.60
2018-09-05T22:08:56.440Z,18.40
2018-09-05T22:11:26.821Z,18.30
2018-09-05T22:13:56.016Z,18.30
2018-09-05T22:16:24.507Z,18.30
2018-09-05T22:18:53.049Z,18.20
2018-09-05T22:21:21.562Z,18.00
2018-09-05T22:23:50.047Z,18.00
2018-09-05T22:26:18.545Z,18.40
2018-09-05T22:28:47.088Z,18.60
2018-09-05T22:31:15.605Z,18.80
2018-09-05T22:33:44.155Z,19.20
2018-09-05T22:36:12.571Z,19.30
2018-09-05T22:38:41.014Z,19.20
2018-09-05T22:41:09.418Z,18.70
2018-09-05T22:43:49.059Z,18.60
2018-09-05T22:46:28.771Z,18.60
2018-09-05T22:49:08.376Z,18.60
2018-09-05T22:52:19.452Z,18.50
2018-09-05T22:57:11.754Z,18.30
2018-09-05T23:01:02.074Z,18.20
2018-09-05T23:03:41.926Z,18.30
2018-09-05T23:07:20.351Z,18.20
2018-09-05T23:09:59.966Z,18.50
2018-09-05T23:12:39.717Z,18.40
2018-09-05T23:15:19.574Z,18.20
2018-09-05T23:20:02.418Z,18.10
2018-09-05T23:22:42.112Z,17.90
2018-09-05T23:25:10.748Z,18.30
2018-09-05T23:27:39.260Z,18.60
2018-09-05T23:30:08.416Z,18.70
2018-09-05T23:32:36.859Z,18.00
2018-09-05T23:35:05.379Z,18.20
2018-09-05T23:37:33.998Z,18.30
2018-09-05T23:40:02.535Z,18.50
2018-09-05T23:42:30.977Z,18.60
2018-09-05T23:44:59.499Z,18.10
2018-09-05T23:47:28.089Z,17.90
2018-09-05T23:49:56.515Z,18.10
2018-09-05T23:52:24.952Z,18.20
2018-09-05T23:54:53.534Z,18.00
2018-09-05T23:57:22.023Z,17.80
2018-09-05T23:59:50.505Z,17.30
